sensor_id;sensor_type;location;lat;lon;timestamp;pressure;altitude;pressure_sealevel;temperature;humidity
63901;BME280;50538;53.482;10.294;2023-06-14T00:07:43;101409.50;;;16.38;58.17
63901;BME280;50538;53.482;10.294;2023-06-14T00:17:44;101408.28;;;16.26;58.74
63901;BME280;50538;53.482;10.294;2023-06-14T00:27:47;101412.81;;;16.11;57.95
63901;BME280;50538;53.482;10.294;2023-06-14T00:37:47;101418.66;;;16.00;59.58
63901;BME280;50538;53.482;10.294;2023-06-14T00:47:49;101415.78;;;15.86;59.38
63901;BME280;50538;53.482;10.294;2023-06-14T00:57:51;101431.84;;;15.72;60.60
63901;BME280;50538;53.482;10.294;2023-06-14T01:08:04;101433.13;;;15.61;59.67
63901;BME280;50538;53.482;10.294;2023-06-14T01:18:06;101425.69;;;15.48;61.37
63901;BME280;50538;53.482;10.294;2023-06-14T01:28:07;101427.31;;;15.35;60.48
63901;BME280;50538;53.482;10.294;2023-06-14T01:38:14;101434.75;;;15.24;62.36
63901;BME280;50538;53.482;10.294;2023-06-14T01:48:15;101447.53;;;15.14;61.86
63901;BME280;50538;53.482;10.294;2023-06-14T01:58:16;101439.06;;;15.03;62.53
63901;BME280;50538;53.482;10.294;2023-06-14T02:08:16;101446.84;;;14.89;64.24
63901;BME280;50538;53.482;10.294;2023-06-14T02:18:17;101446.41;;;14.78;64.14
63901;BME280;50538;53.482;10.294;2023-06-14T02:28:17;101448.81;;;14.65;64.45
63901;BME280;50538;53.482;10.294;2023-06-14T02:38:18;101459.91;;;14.53;65.08
63901;BME280;50538;53.482;10.294;2023-06-14T02:48:18;101461.78;;;14.45;64.62
63901;BME280;50538;53.482;10.294;2023-06-14T02:58:18;101465.50;;;14.36;66.30
63901;BME280;50538;53.482;10.294;2023-06-14T03:08:19;101473.19;;;14.31;67.77
63901;BME280;50538;53.482;10.294;2023-06-14T03:18:19;101486.41;;;14.24;67.11
63901;BME280;50538;53.482;10.294;2023-06-14T03:28:22;101491.25;;;14.20;69.54
63901;BME280;50538;53.482;10.294;2023-06-14T03:38:23;101496.75;;;14.19;68.76
63901;BME280;50538;53.482;10.294;2023-06-14T03:48:23;101501.75;;;14.22;69.13
63901;BME280;50538;53.482;10.294;2023-06-14T03:58:24;101521.59;;;14.36;70.13
63901;BME280;50538;53.482;10.294;2023-06-14T04:08:24;101527.84;;;14.59;71.16
63901;BME280;50538;53.482;10.294;2023-06-14T04:18:24;101542.63;;;14.86;69.94
63901;BME280;50538;53.482;10.294;2023-06-14T04:28:25;101532.13;;;15.15;69.59
63901;BME280;50538;53.482;10.294;2023-06-14T04:38:27;101544.28;;;15.49;70.81
63901;BME280;50538;53.482;10.294;2023-06-14T04:48:28;101533.97;;;15.83;70.26
63901;BME280;50538;53.482;10.294;2023-06-14T04:58:29;101543.97;;;16.27;70.09
63901;BME280;50538;53.482;10.294;2023-06-14T05:08:29;101536.75;;;16.72;67.02
63901;BME280;50538;53.482;10.294;2023-06-14T05:18:29;101545.56;;;17.16;67.55
63901;BME280;50538;53.482;10.294;2023-06-14T05:28:30;101540.25;;;17.59;66.36
63901;BME280;50538;53.482;10.294;2023-06-14T05:38:30;101549.94;;;18.03;65.86
63901;BME280;50538;53.482;10.294;2023-06-14T05:48:31;101564.28;;;18.38;64.54
63901;BME280;50538;53.482;10.294;2023-06-14T05:58:31;101570.53;;;18.86;62.42
63901;BME280;50538;53.482;10.294;2023-06-14T06:08:32;101575.66;;;19.29;60.99
63901;BME280;50538;53.482;10.294;2023-06-14T06:18:33;101565.84;;;19.75;59.03
63901;BME280;50538;53.482;10.294;2023-06-14T06:28:33;101569.00;;;20.25;56.96
63901;BME280;50538;53.482;10.294;2023-06-14T06:38:34;101578.03;;;20.70;52.32
63901;BME280;50538;53.482;10.294;2023-06-14T06:48:35;101582.41;;;21.23;52.26
63901;BME280;50538;53.482;10.294;2023-06-14T06:58:35;101588.31;;;21.76;51.79
63901;BME280;50538;53.482;10.294;2023-06-14T07:08:36;101592.06;;;22.31;50.45
63901;BME280;50538;53.482;10.294;2023-06-14T07:18:38;101602.81;;;22.81;47.79
63901;BME280;50538;53.482;10.294;2023-06-14T07:28:38;101591.03;;;23.24;46.45
63901;BME280;50538;53.482;10.294;2023-06-14T07:38:39;101584.53;;;23.73;45.91
63901;BME280;50538;53.482;10.294;2023-06-14T07:48:41;101589.47;;;24.29;44.28
63901;BME280;50538;53.482;10.294;2023-06-14T07:58:41;101586.81;;;24.81;43.05
63901;BME280;50538;53.482;10.294;2023-06-14T08:08:41;101592.63;;;25.25;42.18
63901;BME280;50538;53.482;10.294;2023-06-14T08:18:44;101588.16;;;25.64;41.18
63901;BME280;50538;53.482;10.294;2023-06-14T08:28:45;101574.88;;;25.96;41.10
63901;BME280;50538;53.482;10.294;2023-06-14T08:38:45;101579.94;;;26.26;40.02
63901;BME280;50538;53.482;10.294;2023-06-14T08:48:49;101581.34;;;26.62;39.98
63901;BME280;50538;53.482;10.294;2023-06-14T08:58:49;101574.59;;;26.91;39.52
63901;BME280;50538;53.482;10.294;2023-06-14T09:08:50;101585.03;;;27.43;38.46
63901;BME280;50538;53.482;10.294;2023-06-14T09:18:51;101584.28;;;27.75;35.45
63901;BME280;50538;53.482;10.294;2023-06-14T09:28:51;101585.78;;;27.92;37.66
63901;BME280;50538;53.482;10.294;2023-06-14T09:38:58;101565.56;;;28.25;38.23
63901;BME280;50538;53.482;10.294;2023-06-14T09:48:59;101571.19;;;28.51;34.04
63901;BME280;50538;53.482;10.294;2023-06-14T09:59:04;101569.34;;;28.67;35.74
63901;BME280;50538;53.482;10.294;2023-06-14T10:09:08;101558.63;;;28.55;35.83
63901;BME280;50538;53.482;10.294;2023-06-14T10:29:21;101551.25;;;29.28;33.99
63901;BME280;50538;53.482;10.294;2023-06-14T10:39:22;101544.19;;;30.08;31.78
63901;BME280;50538;53.482;10.294;2023-06-14T10:49:45;101539.81;;;29.87;33.83
63901;BME280;50538;53.482;10.294;2023-06-14T10:59:46;101525.25;;;29.20;34.70
63901;BME280;50538;53.482;10.294;2023-06-14T11:10:09;101520.66;;;29.72;33.25
63901;BME280;50538;53.482;10.294;2023-06-14T11:20:12;101512.09;;;30.34;29.47
63901;BME280;50538;53.482;10.294;2023-06-14T11:30:16;101512.22;;;29.58;33.89
63901;BME280;50538;53.482;10.294;2023-06-14T11:40:16;101506.97;;;29.51;33.23
63901;BME280;50538;53.482;10.294;2023-06-14T11:50:17;101502.25;;;29.01;34.77
63901;BME280;50538;53.482;10.294;2023-06-14T12:00:17;101492.34;;;28.85;34.30
63901;BME280;50538;53.482;10.294;2023-06-14T12:10:18;101476.00;;;29.15;35.07
63901;BME280;50538;53.482;10.294;2023-06-14T12:20:18;101470.53;;;29.10;33.85
63901;BME280;50538;53.482;10.294;2023-06-14T12:30:22;101454.91;;;30.12;32.62
63901;BME280;50538;53.482;10.294;2023-06-14T12:40:22;101470.25;;;30.13;33.11
63901;BME280;50538;53.482;10.294;2023-06-14T12:50:23;101474.69;;;29.43;34.80
63901;BME280;50538;53.482;10.294;2023-06-14T13:00:23;101467.47;;;28.81;34.09
63901;BME280;50538;53.482;10.294;2023-06-14T13:10:26;101466.44;;;29.08;33.93
63901;BME280;50538;53.482;10.294;2023-06-14T13:20:26;101452.50;;;29.60;33.66
63901;BME280;50538;53.482;10.294;2023-06-14T13:30:26;101454.31;;;30.20;32.40
63901;BME280;50538;53.482;10.294;2023-06-14T13:40:27;101453.63;;;30.59;30.81
63901;BME280;50538;53.482;10.294;2023-06-14T13:50:27;101446.81;;;31.01;32.05
63901;BME280;50538;53.482;10.294;2023-06-14T14:00:27;101440.03;;;30.88;31.03
63901;BME280;50538;53.482;10.294;2023-06-14T14:10:28;101428.06;;;30.09;33.32
63901;BME280;50538;53.482;10.294;2023-06-14T14:20:30;101431.16;;;29.62;33.66
63901;BME280;50538;53.482;10.294;2023-06-14T14:30:30;101434.13;;;29.96;32.31
63901;BME280;50538;53.482;10.294;2023-06-14T14:40:31;101442.66;;;30.59;30.87
63901;BME280;50538;53.482;10.294;2023-06-14T14:50:32;101448.34;;;31.17;30.76
63901;BME280;50538;53.482;10.294;2023-06-14T15:00:33;101428.97;;;31.66;29.94
63901;BME280;50538;53.482;10.294;2023-06-14T15:10:33;101435.16;;;32.06;28.64
63901;BME280;50538;53.482;10.294;2023-06-14T15:20:33;101436.72;;;32.36;29.49
63901;BME280;50538;53.482;10.294;2023-06-14T15:30:34;101434.16;;;32.63;29.38
63901;BME280;50538;53.482;10.294;2023-06-14T15:40:34;101433.50;;;32.71;28.22
63901;BME280;50538;53.482;10.294;2023-06-14T15:50:35;101436.34;;;33.04;29.07
63901;BME280;50538;53.482;10.294;2023-06-14T16:00:36;101419.41;;;33.29;26.79
63901;BME280;50538;53.482;10.294;2023-06-14T16:10:36;101422.06;;;33.34;27.02
63901;BME280;50538;53.482;10.294;2023-06-14T16:20:36;101424.09;;;33.75;26.12
63901;BME280;50538;53.482;10.294;2023-06-14T16:30:37;101427.16;;;34.28;24.65
63901;BME280;50538;53.482;10.294;2023-06-14T16:40:37;101432.16;;;34.40;25.54
63901;BME280;50538;53.482;10.294;2023-06-14T16:50:37;101438.09;;;34.61;25.11
63901;BME280;50538;53.482;10.294;2023-06-14T17:00:38;101420.84;;;34.55;25.24
63901;BME280;50538;53.482;10.294;2023-06-14T17:10:38;101436.53;;;34.68;23.97
63901;BME280;50538;53.482;10.294;2023-06-14T17:20:38;101443.06;;;35.08;25.47
63901;BME280;50538;53.482;10.294;2023-06-14T17:30:38;101439.38;;;35.66;22.45
63901;BME280;50538;53.482;10.294;2023-06-14T17:40:39;101440.28;;;36.32;21.76
63901;BME280;50538;53.482;10.294;2023-06-14T17:50:39;101444.41;;;36.52;21.37
63901;BME280;50538;53.482;10.294;2023-06-14T18:00:39;101449.56;;;35.88;21.20
63901;BME280;50538;53.482;10.294;2023-06-14T18:10:40;101454.78;;;35.90;21.47
63901;BME280;50538;53.482;10.294;2023-06-14T18:20:41;101456.41;;;35.60;20.75
63901;BME280;50538;53.482;10.294;2023-06-14T18:30:41;101454.97;;;34.81;22.12
63901;BME280;50538;53.482;10.294;2023-06-14T18:40:42;101464.47;;;33.33;23.52
63901;BME280;50538;53.482;10.294;2023-06-14T18:50:42;101484.34;;;30.51;27.00
63901;BME280;50538;53.482;10.294;2023-06-14T19:00:42;101482.34;;;28.43;29.77
63901;BME280;50538;53.482;10.294;2023-06-14T19:10:43;101480.88;;;26.92;30.70
63901;BME280;50538;53.482;10.294;2023-06-14T19:20:43;101487.31;;;25.82;31.96
63901;BME280;50538;53.482;10.294;2023-06-14T19:30:43;101490.88;;;24.92;32.86
63901;BME280;50538;53.482;10.294;2023-06-14T19:40:44;101499.53;;;24.14;34.43
63901;BME280;50538;53.482;10.294;2023-06-14T19:50:45;101505.00;;;23.49;35.15
63901;BME280;50538;53.482;10.294;2023-06-14T20:00:45;101518.47;;;22.96;36.29
63901;BME280;50538;53.482;10.294;2023-06-14T20:10:46;101521.56;;;22.44;36.42
63901;BME280;50538;53.482;10.294;2023-06-14T20:20:49;101523.09;;;21.97;37.37
63901;BME280;50538;53.482;10.294;2023-06-14T20:30:49;101526.06;;;21.58;37.92
63901;BME280;50538;53.482;10.294;2023-06-14T20:40:50;101521.75;;;21.19;38.45
63901;BME280;50538;53.482;10.294;2023-06-14T20:50:52;101524.63;;;20.86;38.70
63901;BME280;50538;53.482;10.294;2023-06-14T21:00:53;101523.69;;;20.54;39.13
63901;BME280;50538;53.482;10.294;2023-06-14T21:10:53;101524.41;;;20.23;39.85
63901;BME280;50538;53.482;10.294;2023-06-14T21:20:56;101532.66;;;19.95;40.21
63901;BME280;50538;53.482;10.294;2023-06-14T21:30:56;101539.13;;;19.67;40.58
63901;BME280;50538;53.482;10.294;2023-06-14T21:40:57;101533.25;;;19.37;41.51
63901;BME280;50538;53.482;10.294;2023-06-14T21:50:57;101548.91;;;19.07;41.25
63901;BME280;50538;53.482;10.294;2023-06-14T22:00:57;101555.34;;;18.72;42.02
63901;BME280;50538;53.482;10.294;2023-06-14T22:11:01;101550.25;;;18.42;44.00
63901;BME280;50538;53.482;10.294;2023-06-14T22:21:07;101548.16;;;18.16;44.28
63901;BME280;50538;53.482;10.294;2023-06-14T22:31:10;101546.56;;;17.94;45.02
63901;BME280;50538;53.482;10.294;2023-06-14T22:41:11;101548.44;;;17.72;45.72
63901;BME280;50538;53.482;10.294;2023-06-14T22:51:13;101547.41;;;17.52;46.63
63901;BME280;50538;53.482;10.294;2023-06-14T23:01:15;101543.84;;;17.30;47.22
63901;BME280;50538;53.482;10.294;2023-06-14T23:11:16;101536.59;;;17.09;48.25
63901;BME280;50538;53.482;10.294;2023-06-14T23:21:17;101546.66;;;16.86;48.39
63901;BME280;50538;53.482;10.294;2023-06-14T23:31:17;101537.88;;;16.63;49.00
63901;BME280;50538;53.482;10.294;2023-06-14T23:41:20;101547.47;;;16.42;49.84
63901;BME280;50538;53.482;10.294;2023-06-14T23:51:31;101555.59;;;16.19;50.13
